createdAt,value
2023-04-21T00:02:16.348Z,56.79
2023-04-21T00:05:25.099Z,56.26
2023-04-21T00:08:31.498Z,56.18
2023-04-21T00:11:36.986Z,56.80
2023-04-21T00:14:43.465Z,56.81
2023-04-21T00:17:48.959Z,56.33
2023-04-21T00:20:58.416Z,56.86
2023-04-21T00:24:03.975Z,56.31
2023-04-21T00:27:11.743Z,56.26
2023-04-21T00:30:17.928Z,56.57
2023-04-21T00:33:24.556Z,56.48
2023-04-21T00:36:32.866Z,56.31
2023-04-21T00:39:39.180Z,56.18
2023-04-21T00:42:44.740Z,56.24
2023-04-21T00:45:51.075Z,56.26
2023-04-21T00:48:56.624Z,55.30
2023-04-21T00:52:08.512Z,56.01
2023-04-21T00:55:14.402Z,55.26
2023-04-21T00:58:21.927Z,55.51
2023-04-21T01:01:27.859Z,55.45
2023-04-21T01:04:39.361Z,55.46
2023-04-21T01:07:47.964Z,55.79
2023-04-21T01:10:54.785Z,54.99
2023-04-21T01:14:00.619Z,55.13
2023-04-21T01:17:08.412Z,55.07
2023-04-21T01:20:17.422Z,54.80
2023-04-21T01:23:26.808Z,54.89
2023-04-21T01:26:32.355Z,54.41
2023-04-21T01:29:39.302Z,54.47
2023-04-21T01:32:46.699Z,55.27
2023-04-21T01:35:53.191Z,54.93
2023-04-21T01:39:01.847Z,55.52
2023-04-21T01:42:10.273Z,54.70
2023-04-21T01:45:17.229Z,54.87
2023-04-21T01:48:22.965Z,55.33
2023-04-21T01:51:30.106Z,54.83
2023-04-21T01:54:39.063Z,55.30
2023-04-21T01:57:46.666Z,55.07
2023-04-21T02:00:52.488Z,55.32
2023-04-21T02:03:59.817Z,54.52
2023-04-21T02:07:05.982Z,55.07
2023-04-21T02:10:16.455Z,54.39
2023-04-21T02:13:23.329Z,54.13
2023-04-21T02:16:30.785Z,53.95
2023-04-21T02:19:36.426Z,53.85
2023-04-21T02:22:43.309Z,53.97
2023-04-21T02:25:51.679Z,54.56
2023-04-21T02:28:58.089Z,54.27
2023-04-21T02:32:14.261Z,54.86
2023-04-21T02:35:30.627Z,54.04
2023-04-21T02:38:36.470Z,54.08
2023-04-21T02:41:45.668Z,53.89
2023-04-21T02:44:51.274Z,54.78
2023-04-21T02:47:59.028Z,54.49
2023-04-21T02:51:04.810Z,54.43
2023-04-21T02:54:11.977Z,54.71
2023-04-21T02:57:20.206Z,54.79
2023-04-21T03:00:27.136Z,55.09
2023-04-21T03:03:33.069Z,54.68
2023-04-21T03:06:39.616Z,54.92
2023-04-21T03:09:45.437Z,55.04
2023-04-21T03:12:54.812Z,54.42
2023-04-21T03:16:00.543Z,54.54
2023-04-21T03:19:07.146Z,54.99
2023-04-21T03:22:12.842Z,54.59
2023-04-21T03:25:19.260Z,54.84
2023-04-21T03:28:27.785Z,54.38
2023-04-21T03:31:34.166Z,54.43
2023-04-21T03:34:39.935Z,54.10
2023-04-21T03:37:46.711Z,54.56
2023-04-21T03:40:52.938Z,54.09
2023-04-21T03:44:03.182Z,53.94
2023-04-21T03:47:08.786Z,54.22
2023-04-21T03:50:15.536Z,53.96
2023-04-21T03:53:20.986Z,54.23
2023-04-21T03:56:27.363Z,54.37
2023-04-21T03:59:35.668Z,54.73
2023-04-21T04:02:42.675Z,54.93
2023-04-21T04:05:48.254Z,54.67
2023-04-21T04:08:55.043Z,54.75
2023-04-21T04:12:00.674Z,54.82
2023-04-21T04:15:11.528Z,54.84
2023-04-21T04:18:17.269Z,54.14
2023-04-21T04:21:23.637Z,54.34
2023-04-21T04:24:30.189Z,54.35
2023-04-21T04:27:37.219Z,54.84
2023-04-21T04:30:45.774Z,54.42
2023-04-21T04:33:54.924Z,54.25
2023-04-21T04:37:01.490Z,54.11
2023-04-21T04:40:10.491Z,54.07
2023-04-21T04:43:17.194Z,54.32
2023-04-21T04:46:28.638Z,53.96
2023-04-21T04:49:34.191Z,53.66
2023-04-21T04:52:40.991Z,53.55
2023-04-21T04:55:47.422Z,53.64
2023-04-21T04:58:53.894Z,53.93
2023-04-21T05:02:03.126Z,53.62
2023-04-21T05:05:11.041Z,53.47
2023-04-21T05:08:18.057Z,53.12
2023-04-21T05:11:24.625Z,53.79
2023-04-21T05:14:30.742Z,53.58
2023-04-21T05:17:39.988Z,53.27
2023-04-21T05:20:45.525Z,53.17
2023-04-21T05:23:51.811Z,53.52
2023-04-21T05:26:57.293Z,51.87
2023-04-21T05:30:03.645Z,51.90
2023-04-21T05:33:12.348Z,52.87
2023-04-21T05:36:20.498Z,52.07
2023-04-21T05:39:26.130Z,52.13
2023-04-21T05:42:32.445Z,50.85
2023-04-21T05:45:43.838Z,51.77
2023-04-21T05:48:52.990Z,51.46
2023-04-21T05:51:58.427Z,50.91
2023-04-21T05:55:05.958Z,49.66
2023-04-21T05:58:11.451Z,50.13
2023-04-21T06:01:17.724Z,49.55
2023-04-21T06:04:26.922Z,49.43
2023-04-21T06:07:33.837Z,49.81
2023-04-21T06:10:39.800Z,49.07
2023-04-21T06:13:46.287Z,49.36
2023-04-21T06:16:51.773Z,48.48
2023-04-21T06:20:01.367Z,47.94
2023-04-21T06:23:06.867Z,47.80
2023-04-21T06:26:14.062Z,48.06
2023-04-21T06:29:19.554Z,47.58
2023-04-21T06:32:26.116Z,47.50
2023-04-21T06:35:34.700Z,47.94
2023-04-21T06:38:43.419Z,47.71
2023-04-21T06:41:48.831Z,47.33
2023-04-21T06:44:56.837Z,47.96
2023-04-21T06:48:02.309Z,48.17
2023-04-21T06:51:11.488Z,47.54
2023-04-21T06:54:17.239Z,47.06
2023-04-21T06:57:23.609Z,46.94
2023-04-21T07:00:29.444Z,46.54
2023-04-21T07:03:36.680Z,46.50
2023-04-21T07:06:45.333Z,46.26
2023-04-21T07:09:52.024Z,45.26
2023-04-21T07:12:57.822Z,44.04
2023-04-21T07:16:04.387Z,44.36
2023-04-21T07:19:09.814Z,44.17
2023-04-21T07:22:18.900Z,43.87
2023-04-21T07:25:24.727Z,43.29
2023-04-21T07:28:31.554Z,43.50
2023-04-21T07:31:37.161Z,43.52
2023-04-21T07:34:43.939Z,42.37
2023-04-21T07:37:52.240Z,41.75
2023-04-21T07:40:58.672Z,41.37
2023-04-21T07:44:04.294Z,40.96
2023-04-21T07:47:10.751Z,41.73
2023-04-21T07:50:16.537Z,40.39
2023-04-21T07:53:25.660Z,39.86
2023-04-21T07:56:31.715Z,39.60
2023-04-21T07:59:38.121Z,40.24
2023-04-21T08:02:44.085Z,39.69
2023-04-21T08:05:51.115Z,40.01
2023-04-21T08:08:59.766Z,40.22
2023-04-21T08:12:06.100Z,39.95
2023-04-21T08:15:12.784Z,38.66
2023-04-21T08:18:22.086Z,37.83
2023-04-21T08:21:30.818Z,38.52
2023-04-21T08:24:40.444Z,37.62
2023-04-21T08:27:45.973Z,37.46
2023-04-21T08:30:52.390Z,36.85
2023-04-21T08:34:02.039Z,37.29
2023-04-21T08:37:09.381Z,37.69
2023-04-21T08:40:17.885Z,36.69
2023-04-21T08:43:24.281Z,36.42
2023-04-21T08:46:31.927Z,36.23
2023-04-21T08:49:41.002Z,36.61
2023-04-21T08:52:46.559Z,35.64
2023-04-21T08:56:10.614Z,35.10
2023-04-21T08:59:17.080Z,35.42
2023-04-21T09:02:23.662Z,34.29
2023-04-21T09:05:31.809Z,33.96
2023-04-21T09:08:41.526Z,33.77
2023-04-21T09:11:58.825Z,33.75
2023-04-21T09:15:09.051Z,33.90
2023-04-21T09:18:19.371Z,32.49
2023-04-21T09:21:32.835Z,33.10
2023-04-21T09:24:38.509Z,33.21
2023-04-21T09:27:47.742Z,32.44
2023-04-21T09:30:59.426Z,32.62
2023-04-21T09:34:06.146Z,33.16
2023-04-21T09:37:18.753Z,32.77
2023-04-21T09:40:25.996Z,33.02
2023-04-21T09:43:34.224Z,31.91
2023-04-21T09:46:40.816Z,32.85
2023-04-21T09:49:50.733Z,32.87
2023-04-21T09:52:59.594Z,31.93
2023-04-21T09:56:09.541Z,32.47
2023-04-21T09:59:28.478Z,32.63
2023-04-21T10:02:38.896Z,32.62
2023-04-21T10:05:46.785Z,31.51
2023-04-21T10:08:56.641Z,31.69
2023-04-21T10:12:09.494Z,31.44
2023-04-21T10:15:38.285Z,30.49
2023-04-21T10:18:48.893Z,31.15
2023-04-21T10:21:54.889Z,31.88
2023-04-21T10:25:03.168Z,31.48
2023-04-21T10:28:10.231Z,31.64
2023-04-21T10:31:37.251Z,30.63
2023-04-21T10:34:43.198Z,30.13
2023-04-21T10:37:52.594Z,31.28
2023-04-21T10:40:58.108Z,30.40
2023-04-21T10:44:15.211Z,30.49
2023-04-21T10:47:30.771Z,30.63
2023-04-21T10:50:38.985Z,30.33
2023-04-21T10:53:47.640Z,31.00
2023-04-21T10:56:56.961Z,30.82
2023-04-21T11:00:06.184Z,30.91
2023-04-21T11:03:15.423Z,30.66
2023-04-21T11:06:22.021Z,30.02
2023-04-21T11:09:28.343Z,30.12
2023-04-21T11:12:36.176Z,30.32
2023-04-21T11:15:42.549Z,30.71
2023-04-21T11:18:51.900Z,30.25
2023-04-21T11:21:58.283Z,29.24
2023-04-21T11:25:04.736Z,30.14
2023-04-21T11:28:11.347Z,30.18
2023-04-21T11:31:17.170Z,30.42
2023-04-21T11:34:27.111Z,30.29
2023-04-21T11:37:33.014Z,29.38
2023-04-21T11:40:49.799Z,29.26
2023-04-21T11:43:56.266Z,29.37
2023-04-21T11:47:03.033Z,29.51
2023-04-21T11:50:13.009Z,28.88
2023-04-21T11:53:19.982Z,29.13
2023-04-21T11:56:25.512Z,29.58
2023-04-21T11:59:32.172Z,29.71
2023-04-21T12:02:38.151Z,29.13
2023-04-21T12:05:47.465Z,29.23
2023-04-21T12:09:00.475Z,30.14
2023-04-21T12:12:08.810Z,28.82
2023-04-21T12:15:23.762Z,28.98
2023-04-21T12:18:31.296Z,28.71
2023-04-21T12:21:42.056Z,29.33
2023-04-21T12:24:50.573Z,29.66
2023-04-21T12:28:02.404Z,29.60
2023-04-21T12:31:09.352Z,30.56
2023-04-21T12:34:15.417Z,29.74
2023-04-21T12:37:25.041Z,30.17
2023-04-21T12:40:30.523Z,30.75
2023-04-21T12:43:36.853Z,29.79
2023-04-21T12:46:43.011Z,30.51
2023-04-21T12:49:49.604Z,30.12
2023-04-21T12:52:58.178Z,30.14
2023-04-21T12:56:05.459Z,30.31
2023-04-21T12:59:11.886Z,29.77
2023-04-21T13:02:18.493Z,29.83
2023-04-21T13:05:23.998Z,29.37
2023-04-21T13:08:33.376Z,29.48
2023-04-21T13:11:38.875Z,28.92
2023-04-21T13:14:45.533Z,28.36
2023-04-21T13:17:51.080Z,28.35
2023-04-21T13:20:57.679Z,28.14
2023-04-21T13:24:06.315Z,28.56
2023-04-21T13:27:12.897Z,28.69
2023-04-21T13:30:19.709Z,29.11
2023-04-21T13:33:27.230Z,28.93
2023-04-21T13:36:33.661Z,28.93
2023-04-21T13:39:43.102Z,29.79
2023-04-21T13:42:49.050Z,29.07
2023-04-21T13:45:55.678Z,29.33
2023-04-21T13:49:01.396Z,29.61
2023-04-21T13:52:07.803Z,29.03
2023-04-21T13:55:16.654Z,29.27
2023-04-21T13:58:23.064Z,29.10
2023-04-21T14:01:28.617Z,28.83
2023-04-21T14:04:35.595Z,28.49
2023-04-21T14:07:41.467Z,28.71
2023-04-21T14:10:51.075Z,27.99
2023-04-21T14:14:09.089Z,28.39
2023-04-21T14:17:17.284Z,28.62
2023-04-21T14:20:23.079Z,28.90
2023-04-21T14:23:29.428Z,28.09
2023-04-21T14:26:38.055Z,28.02
2023-04-21T14:29:44.465Z,28.26
2023-04-21T14:32:50.296Z,28.54
2023-04-21T14:35:56.678Z,28.30
2023-04-21T14:39:02.218Z,28.21
2023-04-21T14:42:11.328Z,28.71
2023-04-21T14:45:16.928Z,28.77
2023-04-21T14:48:24.460Z,28.78
2023-04-21T14:51:30.018Z,28.97
2023-04-21T14:54:36.770Z,28.85
2023-04-21T14:57:45.029Z,28.49
2023-04-21T15:00:51.555Z,29.11
2023-04-21T15:03:58.014Z,28.40
2023-04-21T15:07:04.743Z,28.48
2023-04-21T15:10:12.434Z,28.64
2023-04-21T15:13:22.962Z,29.17
2023-04-21T15:16:28.694Z,28.40
2023-04-21T15:19:35.256Z,28.28
2023-04-21T15:22:41.516Z,28.95
2023-04-21T15:25:47.936Z,28.70
2023-04-21T15:28:56.208Z,28.89
2023-04-21T15:32:02.586Z,28.58
2023-04-21T15:35:09.894Z,28.21
2023-04-21T15:38:16.264Z,28.42
2023-04-21T15:41:22.085Z,28.40
2023-04-21T15:44:31.768Z,28.63
2023-04-21T15:47:37.337Z,28.76
2023-04-21T15:50:45.417Z,29.30
2023-04-21T15:53:52.485Z,29.04
2023-04-21T15:56:58.957Z,28.51
2023-04-21T16:00:10.664Z,28.22
2023-04-21T16:03:18.183Z,27.96
2023-04-21T16:06:24.394Z,27.06
2023-04-21T16:09:30.877Z,26.42
2023-04-21T16:12:36.754Z,26.22
2023-04-21T16:15:46.164Z,26.42
2023-04-21T16:18:51.987Z,25.14
2023-04-21T16:21:58.402Z,25.35
2023-04-21T16:25:04.007Z,25.42
2023-04-21T16:28:11.715Z,25.29
2023-04-21T16:31:20.065Z,25.55
2023-04-21T16:34:26.577Z,26.16
2023-04-21T16:37:32.110Z,25.59
2023-04-21T16:40:38.463Z,25.82
2023-04-21T16:43:44.541Z,25.90
2023-04-21T16:46:53.957Z,26.21
2023-04-21T16:49:59.718Z,26.31
2023-04-21T16:53:06.374Z,26.96
2023-04-21T16:56:12.052Z,26.99
2023-04-21T16:59:19.599Z,27.09
2023-04-21T17:02:28.458Z,27.05
2023-04-21T17:05:34.899Z,27.44
2023-04-21T17:08:40.908Z,28.02
2023-04-21T17:11:47.262Z,28.33
2023-04-21T17:14:52.801Z,28.40
2023-04-21T17:18:02.471Z,29.02
2023-04-21T17:21:08.920Z,29.17
2023-04-21T17:24:15.200Z,29.07
2023-04-21T17:27:21.417Z,28.95
2023-04-21T17:30:28.128Z,29.01
2023-04-21T17:33:36.610Z,29.54
2023-04-21T17:36:44.857Z,29.39
2023-04-21T17:39:50.605Z,29.97
2023-04-21T17:42:56.957Z,30.23
2023-04-21T17:46:02.988Z,29.69
2023-04-21T17:49:12.375Z,30.37
2023-04-21T17:52:17.867Z,30.45
2023-04-21T17:55:24.335Z,30.74
2023-04-21T17:58:30.458Z,31.08
2023-04-21T18:01:37.157Z,31.16
2023-04-21T18:04:46.538Z,30.97
2023-04-21T18:07:53.370Z,31.66
2023-04-21T18:10:58.971Z,31.35
2023-04-21T18:14:05.382Z,32.11
2023-04-21T18:17:11.210Z,32.15
2023-04-21T18:20:20.410Z,32.25
2023-04-21T18:23:26.034Z,32.79
2023-04-21T18:26:32.818Z,32.56
2023-04-21T18:29:38.379Z,33.06
2023-04-21T18:32:44.906Z,33.05
2023-04-21T18:35:53.900Z,33.08
2023-04-21T18:39:00.523Z,33.48
2023-04-21T18:42:06.304Z,32.95
2023-04-21T18:45:13.954Z,32.92
2023-04-21T18:48:19.454Z,33.23
2023-04-21T18:51:31.962Z,32.97
2023-04-21T18:54:38.008Z,33.35
2023-04-21T18:57:44.642Z,33.38
2023-04-21T19:00:51.281Z,33.95
2023-04-21T19:03:57.814Z,33.82
2023-04-21T19:07:10.191Z,34.12
2023-04-21T19:10:16.671Z,34.11
2023-04-21T19:13:22.606Z,34.14
2023-04-21T19:16:31.890Z,34.16
2023-04-21T19:19:37.520Z,34.04
2023-04-21T19:22:46.761Z,33.66
2023-04-21T19:25:54.892Z,33.90
2023-04-21T19:29:01.724Z,34.33
2023-04-21T19:32:07.598Z,34.16
2023-04-21T19:35:14.303Z,34.40
2023-04-21T19:38:23.657Z,34.14
2023-04-21T19:41:30.084Z,34.25
2023-04-21T19:44:35.997Z,34.33
2023-04-21T19:47:42.858Z,34.21
2023-04-21T19:50:48.759Z,34.68
2023-04-21T19:54:09.929Z,35.13
2023-04-21T19:57:17.750Z,34.84
2023-04-21T20:00:24.592Z,35.32
2023-04-21T20:03:30.572Z,35.14
2023-04-21T20:06:37.285Z,34.65
2023-04-21T20:09:45.714Z,35.06
2023-04-21T20:12:52.227Z,35.44
2023-04-21T20:15:58.406Z,36.01
2023-04-21T20:19:05.027Z,35.02
2023-04-21T20:22:10.800Z,34.52
2023-04-21T20:25:20.217Z,34.60
2023-04-21T20:28:27.774Z,34.73
2023-04-21T20:31:34.575Z,35.07
2023-04-21T20:34:40.147Z,35.38
2023-04-21T20:37:47.594Z,35.10
2023-04-21T20:40:56.725Z,35.21
2023-04-21T20:44:03.591Z,35.81
2023-04-21T20:47:09.342Z,35.90
2023-04-21T20:50:15.864Z,36.16
2023-04-21T20:53:22.462Z,36.05
2023-04-21T20:56:31.794Z,35.84
2023-04-21T20:59:37.775Z,36.71
2023-04-21T21:02:44.813Z,36.29
2023-04-21T21:05:51.202Z,36.49
2023-04-21T21:08:57.907Z,37.03
2023-04-21T21:12:06.360Z,36.72
2023-04-21T21:15:14.281Z,37.36
2023-04-21T21:18:20.040Z,37.88
2023-04-21T21:21:26.705Z,38.19
2023-04-21T21:24:32.192Z,37.46
2023-04-21T21:27:41.376Z,38.34
2023-04-21T21:30:46.882Z,37.88
2023-04-21T21:33:53.573Z,37.66
2023-04-21T21:36:59.145Z,38.32
2023-04-21T21:40:06.340Z,38.25
2023-04-21T21:43:16.456Z,39.05
2023-04-21T21:46:22.992Z,38.46
2023-04-21T21:49:28.729Z,39.06
2023-04-21T21:52:35.931Z,38.69
2023-04-21T21:55:41.509Z,39.32
2023-04-21T21:58:51.030Z,38.66
2023-04-21T22:01:57.198Z,39.48
2023-04-21T22:05:04.640Z,38.64
2023-04-21T22:08:10.220Z,39.23
2023-04-21T22:11:16.724Z,38.94
2023-04-21T22:14:25.191Z,39.61
2023-04-21T22:17:31.913Z,40.04
2023-04-21T22:20:37.606Z,39.73
2023-04-21T22:23:44.096Z,39.80
2023-04-21T22:26:51.560Z,39.28
2023-04-21T22:30:00.932Z,39.65
2023-04-21T22:33:07.542Z,40.72
2023-04-21T22:36:13.962Z,40.12
2023-04-21T22:39:19.961Z,41.11
2023-04-21T22:42:26.795Z,41.29
2023-04-21T22:45:35.378Z,41.30
2023-04-21T22:48:41.861Z,41.55
2023-04-21T22:51:47.573Z,41.48
2023-04-21T22:54:54.008Z,41.31
2023-04-21T22:57:59.729Z,42.06
2023-04-21T23:01:09.434Z,42.00
2023-04-21T23:04:15.223Z,41.98
2023-04-21T23:07:21.588Z,42.50
2023-04-21T23:10:29.413Z,41.71
2023-04-21T23:13:36.032Z,41.69
2023-04-21T23:16:44.772Z,42.47
2023-04-21T23:19:51.330Z,42.52
2023-04-21T23:22:57.083Z,42.56
2023-04-21T23:26:03.524Z,42.55
2023-04-21T23:29:09.120Z,43.36
2023-04-21T23:32:18.403Z,43.71
2023-04-21T23:35:24.021Z,43.43
2023-04-21T23:38:30.649Z,43.13
2023-04-21T23:41:36.426Z,43.58
2023-04-21T23:44:43.370Z,43.80
2023-04-21T23:47:51.638Z,43.65
2023-04-21T23:50:58.303Z,44.65
2023-04-21T23:54:04.141Z,44.92
2023-04-21T23:57:10.433Z,44.05
